CPF9 weather

Lake Rosseau/Arthurlie Bay Seaplane Base
Ontario, Canada

Public forecast

Using degrees Celsius for public forecast. Weather courtesy of forecast.io.

METAR (pilot weather report)

Closest report is Muskoka Airport, 13.5 nm (25.0 km) SE. Retrieved 2019/05/21 13:00 UTC (1 minute ago):

CYQA 211300Z AUTO 34013KT 9SM FEW026 10/04 A3008 RMK SLP195

TAF (pilot weather forecast)

Closest forecast is Muskoka Airport, 13.5 nm (25.0 km) SE. Retrieved 2019/05/21 12:39 UTC (22 minutes ago):

TAF CYQA 211138Z 2112/2124 31010G20KT P6SM BKN025 TEMPO 2112/2116 BKN020 FM211600 32010G20KT P6SM SCT030 TEMPO 2116/2120 BKN030 BECMG 2122/2124 32008KT RMK FCST BASED ON AUTO OBS. NXT FCST BY 211400Z